Sedgwick Reserve, California Weather observations

Data are for 10 minute period ending at time listed.
 Day   Time   Solar   Ave.   Ave.  Ave.  Vector  Max.   Baro.   Total    
  of    of     Rad.   Air    Rel.  Wind   Wind   Wind  Press.  Precip.   
Year   Day            Temp.  Hum.  Speed  Dir.   Gust                    
2016   (PST)  Kw/m2    F      %     mph   deg.    mph    mb.     in.     
-------------------------------------------------------------------------
  39   23:00   0.00   53.7    44    1.0   255     2.5   979.5    0.00 
  39   23:10   0.00   53.6    42    0.7    24     2.6   979.4    0.00 
  39   23:20   0.00   53.7    43    1.4   345     3.5   979.4    0.00 
  39   23:30   0.00   53.4    43    1.7   334     4.2   979.3    0.00 
  39   23:40   0.00   53.7    42    1.2   311     3.2   979.2    0.00 
  39   23:50   0.00   53.6    42    0.7   341     3.9   979.1    0.00 
  40    0:00   0.00   53.5    42    2.4   336     4.8   979.0    0.00 
  40    0:10   0.00   54.0    41    0.5   317     2.1   979.0    0.00 
  40    0:20   0.00   53.5    42    0.2   274     1.3   978.8    0.00 
  40    0:30   0.00   53.8    42    0.7   350     3.7   978.8    0.00 
  40    0:40   0.00   53.3    42    0.6   349     2.9   978.7    0.00 
  40    0:50   0.00   53.2    42    0.7   239     1.7   978.7    0.00 
  40    1:00   0.00   52.8    42    1.3   355     3.8   978.6    0.00 
  40    1:10   0.00   53.2    41    0.7   251     1.7   978.6    0.00 
  40    1:20   0.00   52.9    42    1.0   231     2.0   978.6    0.00 
  40    1:30   0.00   52.4    42    1.2   259     2.3   978.7    0.00 
  40    1:40   0.00   51.9    43    2.5   356     5.8   978.8    0.00 
  40    1:50   0.00   52.0    42    1.0   312     4.1   978.8    0.00 
  40    2:00   0.00   53.8    39    0.2   278     1.1   978.7    0.00 
  40    2:10   0.00   53.6    39    0.2   206     1.0   978.7    0.00 
  40    2:20   0.00   53.6    39    1.0   261     2.8   978.6    0.00 
  40    2:30   0.00   53.7    39    0.5   339     3.1   978.6    0.00 
  40    2:40   0.00   53.0    40    0.3   274     1.6   978.6    0.00 
  40    2:50   0.00   53.6    38    1.0   250     1.9   978.5    0.00 
  40    3:00   0.00   53.1    40    1.3     6     4.8   978.5    0.00 
  40    3:10   0.00   52.1    40    0.5   244     1.3   978.5    0.00 
  40    3:20   0.00   53.0    38    0.3   260     1.2   978.4    0.00 
  40    3:30   0.00   53.3    37    2.6   353     5.7   978.4    0.00 
  40    3:40   0.00   53.4    37    1.3   316     4.7   978.4    0.00 
  40    3:50   0.00   53.9    36    0.3   212     1.2   978.4    0.00 
  40    4:00   0.00   53.5    37    1.0   228     2.3   978.4    0.00 
  40    4:10   0.00   53.2    37    0.5   219     1.5   978.4    0.00 
  40    4:20   0.00   52.8    38    0.6   256     2.0   978.6    0.00 
  40    4:30   0.00   52.1    39    0.6   246     1.8   978.8    0.00 
  40    4:40   0.00   51.6    40    0.4   158     1.6   978.8    0.00 
  40    4:50   0.00   51.0    41    0.3   236     1.2   978.8    0.00 
  40    5:00   0.00   51.0    41    0.9    10     3.9   978.8    0.00 
  40    5:10   0.00   51.4    40    1.7   314     3.7   978.8    0.00 
  40    5:20   0.00   52.2    38    0.4    29     2.6   978.9    0.00 
  40    5:30   0.00   51.2    40    0.5   260     2.0   978.9    0.00 
  40    5:40   0.00   51.3    39    0.9   341     2.7   979.0    0.00 
  40    5:50   0.00   51.7    38    1.0   351     4.8   979.0    0.00 
  40    6:00   0.00   52.1    38    0.3   233     1.6   979.1    0.00 
  40    6:10   0.00   50.9    40    0.7   242     1.8   979.2    0.00 
  40    6:20   0.00   50.6    40    0.5   305     1.5   979.3    0.00 
  40    6:30   0.00   52.1    36    1.3   341     5.6   979.5    0.00 
  40    6:40   0.00   53.0    37    1.4   350     5.0   979.6    0.00 
  40    6:50   0.00   52.0    37    2.2   320     4.5   979.7    0.00 
  40    7:00   0.00   52.8    36    1.7   344     4.5   979.7    0.00 
  40    7:10   0.02   52.8    36    0.6   305     2.0   979.8    0.00 
  40    7:20   0.04   54.4    35    0.2   208     1.3   979.9    0.00 
  40    7:30   0.07   55.1    37    0.0     0     0.0   979.9    0.00 
  40    7:40   0.10   55.5    36    0.8   205     1.8   979.8    0.00 
  40    7:50   0.13   56.8    40    0.2   288     1.1   979.7    0.00 
  40    8:00   0.16   58.7    39    0.6   340     3.0   979.7    0.00 
  40    8:10   0.20   60.2    40    0.0    23     1.0   979.7    0.00 
  40    8:20   0.23   62.0    41    0.0    27     0.4   979.7    0.00 
  40    8:30   0.26   64.3    42    0.1    59     1.6   979.8    0.00 
  40    8:40   0.29   66.8    39    0.8    61     1.5   980.0    0.00 
  40    8:50   0.33   67.7    34    1.0    67     1.8   980.1    0.00 
  40    9:00   0.36   70.0    29    0.5    69     1.7   980.3    0.00 
  40    9:10   0.39   71.7    28    0.1    76     0.9   980.4    0.00 
  40    9:20   0.42   73.1    24    0.3    56     1.9   980.5    0.00 
  40    9:30   0.45   73.9    24    1.4   112     3.5   980.5    0.00 
  40    9:40   0.47   74.8    27    1.3    92     3.5   980.6    0.00 
  40    9:50   0.50   76.7    24    1.7   108     3.7   980.5    0.00 
  40   10:00   0.52   77.4    22    2.2   105     3.9   980.5    0.00 
  40   10:10   0.55   78.1    24    2.7   131     4.5   980.5    0.00 
  40   10:20   0.57   78.3    22    2.7   115     4.3   980.6    0.00 
  40   10:30   0.59   79.3    19    3.3   109     4.7   980.5    0.00 
  40   10:40   0.61   79.6    20    2.9   108     4.6   980.4    0.00 
  40   10:50   0.62   80.2    17    2.0   121     3.8   980.3    0.00 
  40   11:00   0.64   81.3    17    2.0    84     3.7   980.3    0.00 
  40   11:10   0.65   81.6    19    1.2   104     3.4   980.2    0.00 
  40   11:20   0.67   81.8    18    0.9   218     2.3   980.0    0.00 
  40   11:30   0.64   81.6    17    3.6   231     8.0   979.8    0.00 
  40   11:40   0.68   81.4    17    2.9   226     5.3   979.6    0.00 
  40   11:50   0.69   82.5    16    1.1   231     4.2   979.4    0.00 
  40   12:00   0.70   82.9    20    2.5   135     5.3   979.2    0.00 
  40   12:10   0.70   82.8    20    2.9    92     6.1   978.9    0.00 
  40   12:20   0.70   82.9    23    3.1   136     6.7   978.7    0.00 
  40   12:30   0.70   83.2    21    4.2   134     8.2   978.5    0.00 
  40   12:40   0.70   83.7    21    2.9   125     5.3   978.3    0.00 
  40   12:50   0.69   84.4    17    3.1   159     5.6   978.1    0.00 
  40   13:00   0.68   84.4    15    3.2   181     6.4   978.0    0.00 
  40   13:10   0.68   83.9    14    5.6   248    10.6   977.8    0.00 
  40   13:20   0.67   84.0    14    5.0   241     8.0   977.8    0.00 
  40   13:30   0.66   83.9    14    5.6   230     9.6   977.7    0.00 
  40   13:40   0.64   84.3    15    6.8   256    10.5   977.7    0.00 
  40   13:50   0.62   83.7    14    8.0   265    13.3   977.7    0.00 
  40   14:00   0.54   83.5    14    7.8   264    11.8   977.7    0.00 
  40   14:10   0.57   83.2    14    7.8   254    11.3   977.6    0.00 
  40   14:20   0.58   83.5    14    5.5   254     9.1   977.5    0.00 
  40   14:30   0.58   84.4    14    4.3   249     9.2   977.5    0.00 
  40   14:40   0.50   83.9    15    6.1   235     9.7   977.3    0.00 
  40   14:50   0.25   83.1    15    4.7   236     9.1   977.2    0.00 
  40   15:00   0.33   82.8    16    4.9   219     7.8   977.2    0.00 
  40   15:10   0.34   83.5    16    4.7   226     8.0   977.1    0.00 
  40   15:20   0.20   82.4    16    4.8   248     8.3   977.2    0.00 
  40   15:30   0.28   82.6    17    3.0   238     4.7   977.2    0.00 
  40   15:40   0.28   82.9    16    3.8   257     5.6   977.2    0.00 
  40   15:50   0.39   83.5    16    4.4   240     8.0   977.2    0.00 
  40   16:00   0.37   83.2    16    5.1   256     8.3   977.1    0.00 
  40   16:10   0.29   83.8    16    3.8   216     5.8   977.1    0.00 
  40   16:20   0.27   83.3    17    3.8   236     5.8   977.1    0.00 
  40   16:30   0.23   83.0    17    5.6   236     7.8   977.2    0.00 
  40   16:40   0.18   82.4    17    5.4   229     8.7   977.3    0.00 
  40   16:50   0.13   81.7    17    6.0   244     9.9   977.4    0.00 
  40   17:00   0.05   80.6    18    5.6   247     8.0   977.5    0.00 
  40   17:10   0.04   79.4    18    4.6   251     7.7   977.6    0.00 
  40   17:20   0.02   78.7    19    3.9   272     5.3   977.8    0.00 
  40   17:30   0.00   77.1    19    4.0   279     6.4   977.9    0.00 
  40   17:40   0.00   76.0    19    2.6   288     4.1   978.1    0.00 
  40   17:50   0.00   74.6    21    4.3   301     7.0   978.2    0.00 
  40   18:00   0.00   75.3    22    5.4   312     9.0   978.3    0.00 
  40   18:10   0.00   74.3    22    6.1   322     9.6   978.4    0.00 
  40   18:20   0.00   73.4    21    6.0   325     9.4   978.4    0.00 
  40   18:30   0.00   73.0    22    5.8   311     8.6   978.4    0.00 
  40   18:40   0.00   67.3    31    5.2   340     7.0   978.4    0.00 
  40   18:50   0.00   65.9    32    3.3   324     5.9   978.3    0.00 
  40   19:00   0.00   65.2    32    2.6   329     4.7   978.2    0.00 
  40   19:10   0.00   64.6    33    3.1   350     4.9   978.2    0.00 
  40   19:20   0.00   63.6    33    2.7   330     5.1   978.1    0.00 
  40   19:30   0.00   62.5    35    3.1   326     4.7   978.3    0.00 
  40   19:40   0.00   59.6    41    1.0    67     2.9   978.3    0.00 
  40   19:50   0.00   59.6    41    0.9    40     2.9   978.3    0.00 
  40   20:00   0.00   58.2    43    0.5   285     2.6   978.4    0.00 
  40   20:10   0.00   58.5    41    2.4   257     9.5   978.5    0.00 
  40   20:20   0.00   58.3    43    2.7   350     4.9   978.6    0.00 
  40   20:30   0.00   58.1    44    4.4    13     6.7   978.6    0.00 
  40   20:40   0.00   56.9    46    2.7    30     5.3   978.6    0.00 
  40   20:50   0.00   57.0    45    2.6   241     4.5   978.7    0.00 
  40   21:00   0.00   57.7    44    4.1   237     7.2   978.7    0.00 
  40   21:10   0.00   56.0    48    4.1     6     5.8   978.8    0.00 
  40   21:20   0.00   55.5    49    3.3     9     4.8   979.1    0.00 
  40   21:30   0.00   53.8    51    3.3    18     5.6   979.3    0.00 
  40   21:40   0.00   53.9    51    1.3    15     2.9   979.4    0.00 
  40   21:50   0.00   53.5    51    0.8   321     2.0   979.4    0.00 
  40   22:00   0.00   52.3    54    4.1   358     6.1   979.3    0.00 
  40   22:10   0.00   51.6    56    2.1   281     3.4   979.4    0.00 
  40   22:20   0.00   52.2    54    2.3     0     5.0   979.5    0.00 
  40   22:30   0.00   50.4    58    2.3   340     4.7   979.6    0.00 
  40   22:40   0.00   51.0    57    1.0   268     2.5   979.7    0.00 
  40   22:50   0.00   50.5    57    0.8    32     3.1   979.7    0.00 

Return to Sedgwick Reserve graphs page.


Western Regional Climate Center,wrcc@dri.edu